createdAt,value
2022-08-03T00:04:33.587Z,23.40
2022-08-03T00:09:38.099Z,23.30
2022-08-03T00:14:43.473Z,23.20
2022-08-03T00:19:48.073Z,23.10
2022-08-03T00:24:51.685Z,23.00
2022-08-03T00:29:59.609Z,23.00
2022-08-03T00:35:07.971Z,23.00
2022-08-03T00:40:14.252Z,22.90
2022-08-03T00:45:19.738Z,22.80
2022-08-03T00:50:24.977Z,22.70
2022-08-03T00:55:29.035Z,22.60
2022-08-03T01:00:35.949Z,22.40
2022-08-03T01:05:46.409Z,22.40
2022-08-03T01:10:59.412Z,22.30
2022-08-03T01:16:10.882Z,22.20
2022-08-03T01:21:19.601Z,22.20
2022-08-03T01:26:38.852Z,22.10
2022-08-03T01:32:59.107Z,22.00
2022-08-03T01:37:17.547Z,22.00
2022-08-03T01:42:22.936Z,22.00
2022-08-03T01:47:30.560Z,21.90
2022-08-03T01:52:35.809Z,21.90
2022-08-03T01:58:06.217Z,21.80
2022-08-03T02:03:09.548Z,21.70
2022-08-03T02:08:14.952Z,21.60
2022-08-03T02:13:20.499Z,21.50
2022-08-03T02:18:26.779Z,21.50
2022-08-03T02:23:30.549Z,21.50
2022-08-03T02:28:38.441Z,21.40
2022-08-03T02:33:49.043Z,21.40
2022-08-03T02:38:55.173Z,21.40
2022-08-03T02:44:06.822Z,21.40
2022-08-03T02:49:41.076Z,21.40
2022-08-03T02:54:39.997Z,21.40
2022-08-03T02:59:44.949Z,21.40
2022-08-03T03:05:52.793Z,21.40
2022-08-03T03:10:16.814Z,21.40
2022-08-03T03:15:20.573Z,21.50
2022-08-03T03:20:30.184Z,21.50
2022-08-03T03:25:35.404Z,21.60
2022-08-03T03:30:39.156Z,21.60
2022-08-03T03:35:45.693Z,21.60
2022-08-03T03:40:49.845Z,21.60
2022-08-03T03:45:54.018Z,21.70
2022-08-03T03:50:59.714Z,21.80
2022-08-03T03:56:03.360Z,21.80
2022-08-03T04:01:08.793Z,21.70
2022-08-03T04:06:32.580Z,21.70
2022-08-03T04:11:40.604Z,21.70
2022-08-03T04:16:52.887Z,21.80
2022-08-03T04:22:02.169Z,21.80
2022-08-03T04:27:09.685Z,21.70
2022-08-03T04:32:16.303Z,21.70
2022-08-03T04:37:29.860Z,21.70
2022-08-03T04:42:35.434Z,21.60
2022-08-03T04:47:39.864Z,21.50
2022-08-03T04:52:45.010Z,21.50
2022-08-03T04:57:48.348Z,21.50
2022-08-03T05:02:52.062Z,21.40
2022-08-03T05:07:57.279Z,21.40
2022-08-03T05:13:04.874Z,21.40
2022-08-03T05:18:13.688Z,21.50
2022-08-03T05:23:19.371Z,21.40
2022-08-03T05:28:23.015Z,21.40
2022-08-03T05:33:26.743Z,21.40
2022-08-03T05:38:34.521Z,21.40
2022-08-03T05:43:38.961Z,21.40
2022-08-03T05:48:43.196Z,21.30
2022-08-03T05:53:48.314Z,21.30
2022-08-03T05:58:52.260Z,21.30
2022-08-03T06:03:55.917Z,21.30
2022-08-03T06:09:00.851Z,21.40
2022-08-03T06:14:04.582Z,21.50
2022-08-03T06:19:08.652Z,21.50
2022-08-03T06:24:13.678Z,21.50
2022-08-03T06:29:19.061Z,21.50
2022-08-03T06:34:33.905Z,21.60
2022-08-03T06:39:40.337Z,21.60
2022-08-03T06:44:43.944Z,21.70
2022-08-03T06:50:13.002Z,21.70
2022-08-03T06:55:13.010Z,21.80
2022-08-03T07:00:17.116Z,21.90
2022-08-03T07:05:21.098Z,22.00
2022-08-03T07:10:27.738Z,22.20
2022-08-03T07:15:53.938Z,22.20
2022-08-03T07:20:55.346Z,22.30
2022-08-03T07:26:00.530Z,22.40
2022-08-03T07:31:04.368Z,22.50
2022-08-03T07:36:08.238Z,22.50
2022-08-03T07:41:13.472Z,22.80
2022-08-03T07:46:17.194Z,23.00
2022-08-03T07:51:20.845Z,23.00
2022-08-03T07:56:26.030Z,23.10
2022-08-03T08:01:30.035Z,23.30
2022-08-03T08:06:34.057Z,23.50
2022-08-03T08:11:40.082Z,23.70
2022-08-03T08:16:43.905Z,24.00
2022-08-03T08:21:53.714Z,24.20
2022-08-03T08:27:08.855Z,24.30
2022-08-03T08:32:14.988Z,24.60
2022-08-03T08:37:18.922Z,24.70
2022-08-03T08:42:24.029Z,25.00
2022-08-03T08:47:50.662Z,25.10
2022-08-03T08:52:56.210Z,25.40
2022-08-03T08:58:05.552Z,26.00
2022-08-03T09:03:09.994Z,26.60
2022-08-03T09:08:13.457Z,27.30
2022-08-03T09:13:18.614Z,28.00
2022-08-03T09:18:32.891Z,28.70
2022-08-03T09:24:01.630Z,29.50
2022-08-03T09:29:14.445Z,30.20
2022-08-03T09:34:19.640Z,30.70
2022-08-03T09:39:41.508Z,31.20
2022-08-03T09:44:48.604Z,31.80
2022-08-03T09:50:01.408Z,32.30
2022-08-03T09:56:30.863Z,32.80
2022-08-03T10:00:55.131Z,33.30
2022-08-03T10:06:00.261Z,33.90
2022-08-03T10:11:04.054Z,34.10
2022-08-03T10:16:22.447Z,34.40
2022-08-03T10:21:33.601Z,34.60
2022-08-03T10:26:49.823Z,34.40
2022-08-03T10:31:59.585Z,34.60
2022-08-03T10:37:09.132Z,35.00
2022-08-03T10:42:14.612Z,35.20
2022-08-03T10:47:20.476Z,35.40
2022-08-03T10:52:33.904Z,35.30
2022-08-03T10:57:58.512Z,35.60
2022-08-03T11:03:15.147Z,35.50
2022-08-03T11:08:30.492Z,35.80
2022-08-03T11:13:34.711Z,35.80
2022-08-03T11:18:57.490Z,35.80
2022-08-03T11:24:03.305Z,36.00
2022-08-03T11:29:54.835Z,35.80
2022-08-03T11:35:13.740Z,36.10
2022-08-03T11:40:36.456Z,36.60
2022-08-03T11:45:40.274Z,36.50
2022-08-03T11:50:46.407Z,36.20
2022-08-03T11:55:50.364Z,36.10
2022-08-03T12:00:54.483Z,36.10
2022-08-03T12:06:01.788Z,36.50
2022-08-03T12:11:08.786Z,36.90
2022-08-03T12:16:19.457Z,37.00
2022-08-03T12:21:25.208Z,37.00
2022-08-03T12:26:29.756Z,37.00
2022-08-03T12:31:33.458Z,37.00
2022-08-03T12:36:39.195Z,37.20
2022-08-03T12:41:43.165Z,37.30
2022-08-03T12:46:48.136Z,38.10
2022-08-03T12:52:06.907Z,38.60
2022-08-03T12:57:16.177Z,38.80
2022-08-03T13:02:23.681Z,39.40
2022-08-03T13:07:31.347Z,40.10
2022-08-03T13:12:36.268Z,40.20
2022-08-03T13:17:39.959Z,40.20
2022-08-03T13:22:48.360Z,40.10
2022-08-03T13:28:03.287Z,40.10
2022-08-03T13:33:10.798Z,40.50
2022-08-03T13:38:15.954Z,40.40
2022-08-03T13:43:22.377Z,40.20
2022-08-03T13:48:36.206Z,40.40
2022-08-03T13:53:42.878Z,40.80
2022-08-03T13:58:46.547Z,40.60
2022-08-03T14:03:52.669Z,40.10
2022-08-03T14:09:00.566Z,39.90
2022-08-03T14:14:04.530Z,39.80
2022-08-03T14:19:08.340Z,39.10
2022-08-03T14:24:13.441Z,38.60
2022-08-03T14:29:17.153Z,38.10
2022-08-03T14:34:20.920Z,37.50
2022-08-03T14:39:26.185Z,37.20
2022-08-03T14:44:29.911Z,37.10
2022-08-03T14:50:31.915Z,36.50
2022-08-03T14:54:59.229Z,36.10
2022-08-03T15:00:03.293Z,35.90
2022-08-03T15:05:08.156Z,35.70
2022-08-03T15:10:13.193Z,35.60
2022-08-03T15:15:16.861Z,35.40
2022-08-03T15:20:25.635Z,35.10
2022-08-03T15:26:27.969Z,34.90
2022-08-03T15:31:01.827Z,34.70
2022-08-03T15:36:06.126Z,34.50
2022-08-03T15:41:13.780Z,34.30
2022-08-03T15:46:29.157Z,34.10
2022-08-03T15:51:33.415Z,34.00
2022-08-03T15:56:38.794Z,33.90
2022-08-03T16:01:43.331Z,33.70
2022-08-03T16:06:47.076Z,33.50
2022-08-03T16:11:51.945Z,33.30
2022-08-03T16:16:55.608Z,33.10
2022-08-03T16:21:59.098Z,32.90
2022-08-03T16:27:04.935Z,32.80
2022-08-03T16:32:12.345Z,32.50
2022-08-03T16:37:37.582Z,32.30
2022-08-03T16:42:41.282Z,32.10
2022-08-03T16:47:45.018Z,31.80
2022-08-03T16:52:48.802Z,31.60
2022-08-03T16:57:58.883Z,31.50
2022-08-03T17:03:12.498Z,31.40
2022-08-03T17:08:27.256Z,31.40
2022-08-03T17:13:39.599Z,31.20
2022-08-03T17:18:52.272Z,31.10
2022-08-03T17:23:59.970Z,31.00
2022-08-03T17:29:12.575Z,30.90
2022-08-03T17:34:17.061Z,30.80
2022-08-03T17:39:41.757Z,30.60
2022-08-03T17:44:47.108Z,30.60
2022-08-03T17:49:52.296Z,30.50
2022-08-03T17:55:56.673Z,30.40
2022-08-03T18:00:48.151Z,30.30
2022-08-03T18:06:11.660Z,30.10
2022-08-03T18:11:21.685Z,29.90
2022-08-03T18:16:37.613Z,29.70
2022-08-03T18:22:04.073Z,29.50
2022-08-03T18:27:08.389Z,29.20
2022-08-03T18:32:16.921Z,28.80
2022-08-03T18:37:25.478Z,28.50
2022-08-03T18:42:32.243Z,28.20
2022-08-03T18:47:59.542Z,28.00
2022-08-03T18:53:19.703Z,27.70
2022-08-03T18:58:35.944Z,27.50
2022-08-03T19:03:48.243Z,27.30
2022-08-03T19:08:57.644Z,27.20
2022-08-03T19:14:03.842Z,27.00
2022-08-03T19:19:14.403Z,26.90
2022-08-03T19:24:23.243Z,26.70
2022-08-03T19:29:57.947Z,26.70
2022-08-03T19:34:54.187Z,26.60
2022-08-03T19:40:00.598Z,26.50
2022-08-03T19:45:11.437Z,26.50
2022-08-03T19:50:21.419Z,26.30
2022-08-03T19:55:28.982Z,26.30
2022-08-03T20:00:38.347Z,26.20
2022-08-03T20:05:44.909Z,26.10
2022-08-03T20:10:55.995Z,25.90
2022-08-03T20:15:59.838Z,25.90
2022-08-03T20:21:15.310Z,25.70
2022-08-03T20:26:20.645Z,25.60
2022-08-03T20:31:32.409Z,25.40
2022-08-03T20:36:41.477Z,25.20
2022-08-03T20:41:46.388Z,25.00
2022-08-03T20:46:59.806Z,24.80
2022-08-03T20:52:06.244Z,24.70
2022-08-03T20:57:23.058Z,24.70
2022-08-03T21:02:29.545Z,24.50
2022-08-03T21:08:04.276Z,24.40
2022-08-03T21:13:17.701Z,24.30
2022-08-03T21:18:22.088Z,24.20
2022-08-03T21:23:39.769Z,24.20
2022-08-03T21:28:53.953Z,24.10
2022-08-03T21:33:59.483Z,24.00
2022-08-03T21:39:07.588Z,23.90
2022-08-03T21:44:11.303Z,23.80
2022-08-03T21:50:07.205Z,23.80
2022-08-03T21:54:43.698Z,23.70
2022-08-03T21:59:53.854Z,23.60
2022-08-03T22:04:58.195Z,23.50
2022-08-03T22:10:06.594Z,23.50
2022-08-03T22:15:12.172Z,23.40
2022-08-03T22:20:16.051Z,23.70
2022-08-03T22:25:24.504Z,23.40
2022-08-03T22:30:28.738Z,23.40
2022-08-03T22:35:47.333Z,23.40
2022-08-03T22:40:54.426Z,23.30
2022-08-03T22:46:10.628Z,23.30
2022-08-03T22:51:17.441Z,23.20
2022-08-03T22:56:23.093Z,23.20
2022-08-03T23:01:28.787Z,23.00
2022-08-03T23:06:35.767Z,22.90
2022-08-03T23:11:45.345Z,22.90
2022-08-03T23:16:51.346Z,22.90
2022-08-03T23:22:02.845Z,22.90
2022-08-03T23:27:09.692Z,22.90
2022-08-03T23:32:14.606Z,22.90
2022-08-03T23:37:19.270Z,22.90
2022-08-03T23:42:24.865Z,22.80
2022-08-03T23:47:47.209Z,22.80
2022-08-03T23:52:57.512Z,22.70
2022-08-03T23:58:10.935Z,22.70
